createdAt,value
2022-10-23T00:00:27.650Z,22
2022-10-23T00:01:27.663Z,21
2022-10-23T00:02:27.663Z,23
2022-10-23T00:03:27.664Z,23
2022-10-23T00:04:27.651Z,22
2022-10-23T00:05:27.664Z,26
2022-10-23T00:06:27.665Z,26
2022-10-23T00:07:27.665Z,23
2022-10-23T00:08:27.652Z,25
2022-10-23T00:09:27.690Z,24
2022-10-23T00:10:27.666Z,25
2022-10-23T00:11:27.652Z,23
2022-10-23T00:12:27.653Z,18
2022-10-23T00:13:27.666Z,20
2022-10-23T00:14:27.667Z,18
2022-10-23T00:15:27.653Z,21
2022-10-23T00:16:27.667Z,15
2022-10-23T00:17:27.667Z,15
2022-10-23T00:18:27.667Z,14
2022-10-23T00:19:27.654Z,16
2022-10-23T00:20:27.668Z,15
2022-10-23T00:21:27.671Z,19
2022-10-23T00:22:27.668Z,22
2022-10-23T00:23:27.655Z,21
2022-10-23T00:24:31.375Z,21
2022-10-23T00:25:27.669Z,20
2022-10-23T00:26:27.669Z,20
2022-10-23T00:27:27.656Z,20
2022-10-23T00:28:27.670Z,22
2022-10-23T00:29:27.670Z,22
2022-10-23T00:30:27.657Z,27
2022-10-23T00:31:27.657Z,27
2022-10-23T00:32:27.671Z,28
2022-10-23T00:33:27.671Z,24
2022-10-23T00:34:27.658Z,27
2022-10-23T00:35:27.697Z,32
2022-10-23T00:36:27.672Z,22
2022-10-23T00:37:27.672Z,22
2022-10-23T00:38:27.659Z,22
2022-10-23T00:39:27.672Z,23
2022-10-23T00:40:27.673Z,24
2022-10-23T00:41:27.673Z,22
2022-10-23T00:42:27.660Z,22
2022-10-23T00:43:27.673Z,16
2022-10-23T00:44:27.674Z,19
2022-10-23T00:45:27.674Z,21
2022-10-23T00:46:27.661Z,21
2022-10-23T00:47:27.724Z,19
2022-10-23T00:48:27.675Z,18
2022-10-23T00:49:27.662Z,18
2022-10-23T00:50:27.662Z,16
2022-10-23T00:51:27.675Z,18
2022-10-23T00:52:27.677Z,14
2022-10-23T00:53:27.663Z,15
2022-10-23T00:54:27.676Z,15
2022-10-23T00:55:27.676Z,17
2022-10-23T00:56:27.676Z,17
2022-10-23T00:57:27.664Z,13
2022-10-23T00:58:27.677Z,16
2022-10-23T00:59:27.683Z,15
2022-10-23T01:00:27.678Z,14
2022-10-23T01:01:27.665Z,12
2022-10-23T01:02:27.678Z,15
2022-10-23T01:03:27.679Z,17
2022-10-23T01:04:27.679Z,17
2022-10-23T01:05:27.666Z,16
2022-10-23T01:06:27.679Z,15
2022-10-23T01:07:27.680Z,14
2022-10-23T01:08:27.666Z,18
2022-10-23T01:09:27.667Z,14
2022-10-23T01:10:27.680Z,15
2022-10-23T01:11:27.681Z,17
2022-10-23T01:12:27.667Z,18
2022-10-23T01:13:27.681Z,16
2022-10-23T01:14:27.681Z,16
2022-10-23T01:15:27.681Z,16
2022-10-23T01:16:27.668Z,15
2022-10-23T01:17:27.682Z,20
2022-10-23T01:18:27.682Z,16
2022-10-23T01:19:27.682Z,18
2022-10-23T01:20:27.669Z,16
2022-10-23T01:21:27.683Z,19
2022-10-23T01:22:27.684Z,20
2022-10-23T01:23:27.683Z,17
2022-10-23T01:24:27.670Z,18
2022-10-23T01:25:27.748Z,18
2022-10-23T01:26:27.684Z,19
2022-10-23T01:27:27.671Z,15
2022-10-23T01:28:27.671Z,18
2022-10-23T01:29:27.684Z,13
2022-10-23T01:30:27.685Z,18
2022-10-23T01:31:27.672Z,15
2022-10-23T01:32:27.685Z,16
2022-10-23T01:33:27.685Z,20
2022-10-23T01:34:27.686Z,17
2022-10-23T01:35:27.673Z,18
2022-10-23T01:36:27.686Z,18
2022-10-23T01:37:27.686Z,20
2022-10-23T01:38:27.687Z,21
2022-10-23T01:39:27.674Z,18
2022-10-23T01:40:27.687Z,17
2022-10-23T01:41:27.688Z,22
2022-10-23T01:42:27.687Z,19
2022-10-23T01:43:27.675Z,19
2022-10-23T01:44:27.688Z,21
2022-10-23T01:45:27.689Z,19
2022-10-23T01:46:27.688Z,14
2022-10-23T01:47:27.676Z,14
2022-10-23T01:48:27.689Z,15
2022-10-23T01:49:27.690Z,15
2022-10-23T01:50:27.676Z,15
2022-10-23T01:51:27.676Z,16
2022-10-23T01:52:27.690Z,18
2022-10-23T01:53:27.754Z,13
2022-10-23T01:54:27.677Z,14
2022-10-23T01:55:27.690Z,14
2022-10-23T01:56:27.691Z,12
2022-10-23T01:57:27.691Z,12
2022-10-23T01:58:27.678Z,15
2022-10-23T01:59:27.691Z,13
2022-10-23T02:00:27.692Z,18
2022-10-23T02:01:27.692Z,13
2022-10-23T02:02:27.679Z,17
2022-10-23T02:03:27.692Z,16
2022-10-23T02:04:27.693Z,18
2022-10-23T02:05:27.704Z,15
2022-10-23T02:06:27.680Z,13
2022-10-23T02:07:27.693Z,16
2022-10-23T02:08:27.694Z,15
2022-10-23T02:09:27.681Z,18
2022-10-23T02:10:27.681Z,15
2022-10-23T02:11:27.694Z,15
2022-10-23T02:12:27.694Z,16
2022-10-23T02:13:27.681Z,12
2022-10-23T02:14:27.695Z,14
2022-10-23T02:15:27.695Z,15
2022-10-23T02:16:27.695Z,15
2022-10-23T02:17:27.683Z,17
2022-10-23T02:18:27.696Z,17
2022-10-23T02:19:27.697Z,15
2022-10-23T02:20:27.696Z,16
2022-10-23T02:21:27.683Z,15
2022-10-23T02:22:27.697Z,16
2022-10-23T02:23:27.698Z,15
2022-10-23T02:24:27.684Z,16
2022-10-23T02:25:27.684Z,14
2022-10-23T02:26:27.698Z,15
2022-10-23T02:27:27.698Z,12
2022-10-23T02:28:27.685Z,13
2022-10-23T02:29:27.724Z,12
2022-10-23T02:30:27.699Z,14
2022-10-23T02:31:27.699Z,15
2022-10-23T02:32:27.686Z,18
2022-10-23T02:33:27.699Z,17
2022-10-23T02:34:27.699Z,16
2022-10-23T02:35:27.700Z,18
2022-10-23T02:36:27.687Z,17
2022-10-23T02:37:27.700Z,16
2022-10-23T02:38:27.701Z,16
2022-10-23T02:39:27.701Z,17
2022-10-23T02:40:27.688Z,17
2022-10-23T02:41:27.751Z,20
2022-10-23T02:42:27.702Z,18
2022-10-23T02:43:27.688Z,18
2022-10-23T02:44:27.689Z,17
2022-10-23T02:45:27.702Z,21
2022-10-23T02:46:27.703Z,17
2022-10-23T02:47:27.689Z,17
2022-10-23T02:48:27.690Z,14
2022-10-23T02:49:27.703Z,18
2022-10-23T02:50:27.703Z,16
2022-10-23T02:51:27.690Z,17
2022-10-23T02:52:27.704Z,14
2022-10-23T02:53:27.704Z,15
2022-10-23T02:54:27.704Z,14
2022-10-23T02:55:27.691Z,16
2022-10-23T02:56:27.704Z,14
2022-10-23T02:57:27.705Z,16
2022-10-23T02:58:27.705Z,19
2022-10-23T02:59:27.692Z,17
2022-10-23T03:00:27.705Z,16
2022-10-23T03:01:27.706Z,16
2022-10-23T03:02:27.706Z,19
2022-10-23T03:03:27.693Z,22
2022-10-23T03:04:27.706Z,20
2022-10-23T03:05:27.707Z,21
2022-10-23T03:06:27.694Z,19
2022-10-23T03:07:27.694Z,20
2022-10-23T03:08:27.707Z,21
2022-10-23T03:09:27.733Z,21
2022-10-23T03:10:27.695Z,18
2022-10-23T03:11:27.708Z,20
2022-10-23T03:12:27.708Z,16
2022-10-23T03:13:27.708Z,14
2022-10-23T03:14:27.695Z,14
2022-10-23T03:15:27.709Z,17
2022-10-23T03:16:27.710Z,15
2022-10-23T03:17:27.709Z,15
2022-10-23T03:18:27.696Z,11
2022-10-23T03:19:27.710Z,11
2022-10-23T03:20:27.710Z,13
2022-10-23T03:21:27.697Z,11
2022-10-23T03:22:27.697Z,11
2022-10-23T03:23:27.711Z,12
2022-10-23T03:24:27.711Z,11
2022-10-23T03:25:27.698Z,12
2022-10-23T03:26:27.698Z,14
2022-10-23T03:27:27.711Z,14
2022-10-23T03:28:27.712Z,12
2022-10-23T03:29:27.699Z,11
2022-10-23T03:30:27.712Z,12
2022-10-23T03:31:27.712Z,11
2022-10-23T03:32:27.713Z,13
2022-10-23T03:33:27.700Z,18
2022-10-23T03:34:27.713Z,14
2022-10-23T03:36:27.714Z,13
2022-10-23T03:37:27.701Z,13
2022-10-23T03:38:27.714Z,15
2022-10-23T03:39:27.715Z,12
2022-10-23T03:40:27.701Z,13
2022-10-23T03:41:27.701Z,13
2022-10-23T03:42:27.715Z,13
2022-10-23T03:43:27.716Z,15
2022-10-23T03:44:27.702Z,13
2022-10-23T03:45:27.702Z,16
2022-10-23T03:46:27.716Z,16
2022-10-23T03:47:27.716Z,16
2022-10-23T03:48:27.703Z,14
2022-10-23T03:49:27.716Z,18
2022-10-23T03:50:27.717Z,15
2022-10-23T03:51:27.717Z,17
2022-10-23T03:52:27.704Z,18
2022-10-23T03:53:27.717Z,17
2022-10-23T03:54:27.718Z,16
2022-10-23T03:55:27.718Z,16
2022-10-23T03:56:27.705Z,15
2022-10-23T03:57:27.718Z,17
2022-10-23T03:58:27.719Z,16
2022-10-23T03:59:27.706Z,17
2022-10-23T04:00:27.706Z,14
2022-10-23T04:01:27.719Z,16
2022-10-23T04:02:27.720Z,14
2022-10-23T04:03:27.707Z,13
2022-10-23T04:04:27.707Z,16
2022-10-23T04:05:27.720Z,18
2022-10-23T04:06:27.720Z,15
2022-10-23T04:07:27.707Z,12
2022-10-23T04:08:27.721Z,11
2022-10-23T04:09:27.721Z,10
2022-10-23T04:10:27.721Z,11
2022-10-23T04:11:27.708Z,10
2022-10-23T04:12:27.722Z,10
2022-10-23T04:13:27.722Z,13
2022-10-23T04:14:27.722Z,13
2022-10-23T04:15:27.709Z,11
2022-10-23T04:16:27.723Z,14
2022-10-23T04:17:27.723Z,13
2022-10-23T04:18:27.710Z,13
2022-10-23T04:19:27.710Z,11
2022-10-23T04:20:27.724Z,12
2022-10-23T04:21:27.724Z,12
2022-10-23T04:22:27.711Z,12
2022-10-23T04:23:27.765Z,11
2022-10-23T04:24:27.724Z,13
2022-10-23T04:25:27.725Z,12
2022-10-23T04:26:27.712Z,13
2022-10-23T04:27:27.725Z,13
2022-10-23T04:28:27.725Z,12
2022-10-23T04:29:27.725Z,11
2022-10-23T04:30:27.713Z,11
2022-10-23T04:31:27.726Z,12
2022-10-23T04:32:27.727Z,12
2022-10-23T04:33:27.726Z,14
2022-10-23T04:34:27.713Z,17
2022-10-23T04:35:27.768Z,13
2022-10-23T04:36:27.728Z,12
2022-10-23T04:37:27.714Z,12
2022-10-23T04:38:27.714Z,12
2022-10-23T04:39:27.728Z,12
2022-10-23T04:40:27.728Z,12
2022-10-23T04:41:27.715Z,10
2022-10-23T04:42:27.754Z,11
2022-10-23T04:43:27.729Z,10
2022-10-23T04:44:27.729Z,9
2022-10-23T04:45:27.716Z,11
2022-10-23T04:46:27.729Z,10
2022-10-23T04:47:27.729Z,12
2022-10-23T04:48:27.730Z,10
2022-10-23T04:49:27.717Z,11
2022-10-23T04:50:27.730Z,12
2022-10-23T04:51:27.731Z,10
2022-10-23T04:52:27.731Z,10
2022-10-23T04:53:27.718Z,9
2022-10-23T04:54:27.731Z,9
2022-10-23T04:55:27.732Z,8
2022-10-23T04:56:27.718Z,10
2022-10-23T04:57:27.719Z,10
2022-10-23T04:58:27.732Z,10
2022-10-23T04:59:27.733Z,10
2022-10-23T05:00:27.719Z,12
2022-10-23T05:01:27.720Z,11
2022-10-23T05:02:27.733Z,13
2022-10-23T05:03:27.733Z,13
2022-10-23T05:04:27.720Z,12
2022-10-23T05:05:27.734Z,13
2022-10-23T05:06:27.734Z,14
2022-10-23T05:07:27.734Z,14
2022-10-23T05:08:27.734Z,12
2022-10-23T05:09:27.734Z,14
2022-10-23T05:10:27.735Z,13
2022-10-23T05:11:27.735Z,16
2022-10-23T05:12:27.722Z,18
2022-10-23T05:13:27.735Z,14
2022-10-23T05:14:27.736Z,15
2022-10-23T05:15:27.723Z,16
2022-10-23T05:16:27.723Z,13
2022-10-23T05:17:27.736Z,14
2022-10-23T05:18:27.737Z,14
2022-10-23T05:19:27.724Z,15
2022-10-23T05:20:27.778Z,13
2022-10-23T05:21:27.737Z,13
2022-10-23T05:22:27.737Z,17
2022-10-23T05:23:27.725Z,14
2022-10-23T05:24:27.738Z,16
2022-10-23T05:25:27.738Z,15
2022-10-23T05:26:27.738Z,16
2022-10-23T05:27:27.725Z,14
2022-10-23T05:28:27.739Z,14
2022-10-23T05:29:27.740Z,15
2022-10-23T05:30:27.739Z,14
2022-10-23T05:31:27.726Z,16
2022-10-23T05:32:27.741Z,17
2022-10-23T05:33:27.740Z,16
2022-10-23T05:34:27.727Z,16
2022-10-23T05:35:27.727Z,16
2022-10-23T05:36:27.740Z,17
2022-10-23T05:37:27.741Z,18
2022-10-23T05:38:27.728Z,16
2022-10-23T05:39:27.741Z,14
2022-10-23T05:40:27.741Z,16
2022-10-23T05:41:27.742Z,17
2022-10-23T05:42:27.729Z,15
2022-10-23T05:43:27.742Z,19
2022-10-23T05:44:27.770Z,15
2022-10-23T05:45:27.743Z,18
2022-10-23T05:46:27.730Z,18
2022-10-23T05:47:27.743Z,15
2022-10-23T05:48:27.744Z,15
2022-10-23T05:49:27.743Z,17
2022-10-23T05:50:27.731Z,19
2022-10-23T05:51:27.744Z,19
2022-10-23T05:52:27.745Z,20
2022-10-23T05:53:27.731Z,18
2022-10-23T05:54:27.731Z,20
2022-10-23T05:55:27.745Z,17
2022-10-23T05:56:27.746Z,18
2022-10-23T05:57:27.732Z,20
2022-10-23T05:58:27.771Z,18
2022-10-23T05:59:27.746Z,17
2022-10-23T06:00:27.746Z,21
2022-10-23T06:01:27.733Z,20
2022-10-23T06:02:27.746Z,20
2022-10-23T06:03:27.747Z,21
2022-10-23T06:04:27.747Z,19
2022-10-23T06:05:27.734Z,23
2022-10-23T06:06:27.747Z,23
2022-10-23T06:07:27.748Z,19
2022-10-23T06:08:27.748Z,18
2022-10-23T06:09:27.735Z,19
2022-10-23T06:10:27.798Z,18
2022-10-23T06:11:27.749Z,18
2022-10-23T06:12:27.735Z,24
2022-10-23T06:13:27.736Z,21
2022-10-23T06:14:27.749Z,22
2022-10-23T06:15:27.750Z,26
2022-10-23T06:16:27.736Z,23
2022-10-23T06:17:27.737Z,23
2022-10-23T06:18:27.750Z,21
2022-10-23T06:19:27.750Z,22
2022-10-23T06:20:27.737Z,22
2022-10-23T06:21:27.751Z,24
2022-10-23T06:22:27.751Z,25
2022-10-23T06:23:27.751Z,22
2022-10-23T06:24:27.738Z,19
2022-10-23T06:25:27.752Z,18
2022-10-23T06:26:27.753Z,18
2022-10-23T06:27:27.752Z,20
2022-10-23T06:28:27.739Z,19
2022-10-23T06:29:27.753Z,17
2022-10-23T06:30:27.753Z,19
2022-10-23T06:31:27.740Z,18
2022-10-23T06:32:27.740Z,18
2022-10-23T06:33:27.753Z,15
2022-10-23T06:34:27.754Z,16
2022-10-23T06:35:27.741Z,17
2022-10-23T06:36:27.795Z,16
2022-10-23T06:37:27.754Z,16
2022-10-23T06:38:27.755Z,19
2022-10-23T06:39:27.742Z,20
2022-10-23T06:40:27.755Z,21
2022-10-23T06:41:27.755Z,17
2022-10-23T06:42:27.756Z,17
2022-10-23T06:43:27.743Z,16
2022-10-23T06:44:27.756Z,19
2022-10-23T06:45:27.757Z,18
2022-10-23T06:46:27.756Z,18
2022-10-23T06:47:27.744Z,17
2022-10-23T06:48:27.757Z,17
2022-10-23T06:49:27.758Z,16
2022-10-23T06:50:27.744Z,17
2022-10-23T06:51:27.745Z,20
2022-10-23T06:52:27.758Z,19
2022-10-23T06:53:27.759Z,16
2022-10-23T06:54:27.745Z,18
2022-10-23T06:55:27.745Z,15
2022-10-23T06:56:27.759Z,18
2022-10-23T06:57:27.759Z,12
2022-10-23T06:58:27.746Z,15
2022-10-23T06:59:27.760Z,15
2022-10-23T07:00:27.760Z,18
2022-10-23T07:01:27.760Z,16
2022-10-23T07:02:27.747Z,19
2022-10-23T07:03:27.760Z,15
2022-10-23T07:04:27.761Z,25
2022-10-23T07:05:27.761Z,27
2022-10-23T07:06:27.748Z,20
2022-10-23T07:07:27.761Z,20
2022-10-23T07:08:27.762Z,23
2022-10-23T07:09:27.749Z,22
2022-10-23T07:10:27.749Z,20
2022-10-23T07:11:27.762Z,22
2022-10-23T07:12:27.763Z,22
2022-10-23T07:13:27.750Z,21
2022-10-23T07:14:27.765Z,20
2022-10-23T07:15:27.763Z,24
2022-10-23T07:16:27.764Z,27
2022-10-23T07:17:27.751Z,25
2022-10-23T07:18:27.764Z,22
2022-10-23T07:19:27.764Z,26
2022-10-23T07:20:27.765Z,28
2022-10-23T07:21:27.752Z,23
2022-10-23T07:22:27.765Z,21
2022-10-23T07:23:27.766Z,24
2022-10-23T07:24:27.766Z,22
2022-10-23T07:25:27.753Z,26
2022-10-23T07:26:27.766Z,21
2022-10-23T07:27:27.767Z,18
2022-10-23T07:28:27.754Z,22
2022-10-23T07:29:27.754Z,17
2022-10-23T07:30:27.767Z,20
2022-10-23T07:31:27.768Z,14
2022-10-23T07:32:27.755Z,15
2022-10-23T07:33:27.768Z,13
2022-10-23T07:34:27.768Z,15
2022-10-23T07:35:27.769Z,11
2022-10-23T07:36:27.756Z,10
2022-10-23T07:37:27.769Z,14
2022-10-23T07:38:27.775Z,16
2022-10-23T07:39:27.770Z,14
2022-10-23T07:40:27.757Z,15
2022-10-23T07:41:27.770Z,15
2022-10-23T07:42:27.771Z,15
2022-10-23T07:43:27.771Z,13
2022-10-23T07:44:27.758Z,13
2022-10-23T07:45:33.636Z,13
2022-10-23T07:46:27.772Z,13
2022-10-23T07:47:27.759Z,13
2022-10-23T07:48:27.759Z,13
2022-10-23T07:49:27.772Z,12
2022-10-23T07:50:27.773Z,14
2022-10-23T07:51:27.760Z,17
2022-10-23T07:52:27.838Z,17
2022-10-23T07:53:27.774Z,16
2022-10-23T07:54:27.774Z,16
2022-10-23T07:55:27.761Z,18
2022-10-23T07:56:27.775Z,17
2022-10-23T07:57:27.775Z,18
2022-10-23T07:58:27.775Z,15
2022-10-23T07:59:27.762Z,17
2022-10-23T08:00:27.776Z,19
2022-10-23T08:01:27.777Z,22
2022-10-23T08:02:27.776Z,20
2022-10-23T08:03:27.763Z,23
2022-10-23T08:04:27.777Z,25
2022-10-23T08:05:27.778Z,22
2022-10-23T08:06:27.764Z,22
2022-10-23T08:07:27.765Z,20
2022-10-23T08:08:27.778Z,20
2022-10-23T08:09:27.779Z,21
2022-10-23T08:10:27.766Z,23
2022-10-23T08:11:27.766Z,26
2022-10-23T08:12:27.780Z,25
2022-10-23T08:13:27.780Z,25
2022-10-23T08:14:27.767Z,25
2022-10-23T08:15:27.781Z,27
2022-10-23T08:16:27.781Z,22
2022-10-23T08:17:27.781Z,23
2022-10-23T08:18:27.769Z,22
2022-10-23T08:19:27.782Z,21
2022-10-23T08:20:27.783Z,21
2022-10-23T08:21:27.783Z,21
2022-10-23T08:22:27.770Z,19
2022-10-23T08:23:27.783Z,22
2022-10-23T08:24:27.784Z,21
2022-10-23T08:25:27.771Z,20
2022-10-23T08:26:27.771Z,18
2022-10-23T08:27:27.785Z,24
2022-10-23T08:28:27.786Z,20
2022-10-23T08:29:27.772Z,20
2022-10-23T08:30:27.788Z,20
2022-10-23T08:31:27.786Z,18
2022-10-23T08:32:27.787Z,24
2022-10-23T08:33:27.774Z,19
2022-10-23T08:34:27.788Z,18
2022-10-23T08:35:27.788Z,19
2022-10-23T08:36:27.788Z,22
2022-10-23T08:37:27.776Z,30
2022-10-23T08:38:27.789Z,27
2022-10-23T08:39:27.790Z,31
2022-10-23T08:40:27.790Z,19
2022-10-23T08:41:27.777Z,25
2022-10-23T08:42:27.832Z,24
2022-10-23T08:43:27.792Z,27
2022-10-23T08:44:27.779Z,25
2022-10-23T08:45:31.381Z,24
2022-10-23T08:46:27.793Z,28
2022-10-23T08:47:27.794Z,28
2022-10-23T08:48:27.780Z,21
2022-10-23T08:49:27.781Z,24
2022-10-23T08:50:27.795Z,28
2022-10-23T08:51:27.795Z,30
2022-10-23T08:52:27.782Z,31
2022-10-23T08:53:27.796Z,26
2022-10-23T08:54:27.796Z,27
2022-10-23T08:55:27.797Z,30
2022-10-23T08:56:27.784Z,30
2022-10-23T08:57:27.798Z,32
2022-10-23T08:58:27.799Z,31
2022-10-23T08:59:27.799Z,30
2022-10-23T09:00:27.786Z,33
2022-10-23T09:01:27.800Z,33
2022-10-23T09:02:27.801Z,31
2022-10-23T09:03:27.788Z,26
2022-10-23T09:04:27.788Z,31
2022-10-23T09:05:27.802Z,31
2022-10-23T09:06:27.803Z,28
2022-10-23T09:07:27.790Z,29
2022-10-23T09:08:27.868Z,37
2022-10-23T09:09:27.804Z,38
2022-10-23T09:10:27.804Z,37
2022-10-23T09:11:27.792Z,39
2022-10-23T09:12:27.805Z,42
2022-10-23T09:13:27.806Z,37
2022-10-23T09:14:27.806Z,38
2022-10-23T09:15:27.794Z,37
2022-10-23T09:16:27.808Z,37
2022-10-23T09:17:27.809Z,38
2022-10-23T09:18:27.808Z,30
2022-10-23T09:19:27.796Z,28
2022-10-23T09:20:27.859Z,22
2022-10-23T09:21:27.811Z,25
2022-10-23T09:22:27.798Z,26
2022-10-23T09:23:27.798Z,19
2022-10-23T09:24:27.812Z,23
2022-10-23T09:25:27.813Z,24
2022-10-23T09:26:27.800Z,30
2022-10-23T09:27:27.814Z,28
2022-10-23T09:28:27.814Z,30
2022-10-23T09:29:27.815Z,33
2022-10-23T09:30:27.802Z,31
2022-10-23T09:31:27.816Z,31
2022-10-23T09:32:27.816Z,38
2022-10-23T09:33:27.817Z,36
2022-10-23T09:34:27.804Z,35
2022-10-23T09:35:27.818Z,42
2022-10-23T09:36:27.819Z,54
2022-10-23T09:37:27.819Z,47
2022-10-23T09:38:27.806Z,45
2022-10-23T09:39:27.846Z,37
2022-10-23T09:40:27.821Z,42
2022-10-23T09:42:27.808Z,42
2022-10-23T09:43:27.822Z,35
2022-10-23T09:44:27.823Z,39
2022-10-23T09:45:27.810Z,49
2022-10-23T09:46:27.849Z,33
2022-10-23T09:47:27.824Z,32
2022-10-23T09:48:27.824Z,39
2022-10-23T09:49:27.812Z,42
2022-10-23T09:50:27.825Z,38
2022-10-23T09:51:27.826Z,40
2022-10-23T09:52:27.826Z,45
2022-10-23T09:53:27.814Z,45
2022-10-23T09:54:27.828Z,47
2022-10-23T09:55:27.828Z,43
2022-10-23T09:56:27.828Z,39
2022-10-23T09:57:27.816Z,39
2022-10-23T09:58:27.829Z,38
2022-10-23T09:59:27.830Z,40
2022-10-23T10:00:27.817Z,49
2022-10-23T10:01:27.818Z,47
2022-10-23T10:02:27.831Z,39
2022-10-23T10:03:27.832Z,32
2022-10-23T10:04:27.819Z,36
2022-10-23T10:05:27.858Z,27
2022-10-23T10:06:27.833Z,33
2022-10-23T10:07:27.835Z,28
2022-10-23T10:08:27.821Z,32
2022-10-23T10:09:27.835Z,37
2022-10-23T10:10:27.835Z,39
2022-10-23T10:11:27.836Z,32
2022-10-23T10:12:27.823Z,33
2022-10-23T10:13:27.837Z,29
2022-10-23T10:14:27.838Z,30
2022-10-23T10:15:27.838Z,31
2022-10-23T10:16:27.826Z,24
2022-10-23T10:17:27.839Z,28
2022-10-23T10:18:27.840Z,30
2022-10-23T10:19:27.827Z,23
2022-10-23T10:20:27.828Z,26
2022-10-23T10:21:27.841Z,31
2022-10-23T10:22:27.842Z,40
2022-10-23T10:23:27.830Z,36
2022-10-23T10:24:27.830Z,40
2022-10-23T10:25:27.844Z,36
2022-10-23T10:26:27.844Z,36
2022-10-23T10:27:27.832Z,35
2022-10-23T10:28:27.845Z,31
2022-10-23T10:29:27.846Z,37
2022-10-23T10:30:27.846Z,34
2022-10-23T10:31:27.834Z,40
2022-10-23T10:32:27.847Z,42
2022-10-23T10:33:27.848Z,39
2022-10-23T10:34:27.848Z,34
2022-10-23T10:35:27.836Z,48
2022-10-23T10:36:27.849Z,41
2022-10-23T10:37:27.850Z,39
2022-10-23T10:38:27.837Z,37
2022-10-23T10:39:27.838Z,39
2022-10-23T10:40:27.851Z,36
2022-10-23T10:41:27.852Z,45
2022-10-23T10:42:27.839Z,42
2022-10-23T10:43:27.879Z,42
2022-10-23T10:44:27.853Z,45
2022-10-23T10:45:27.854Z,49
2022-10-23T10:46:27.841Z,46
2022-10-23T10:47:27.855Z,41
2022-10-23T10:48:27.856Z,45
2022-10-23T10:49:27.856Z,47
2022-10-23T10:50:27.844Z,48
2022-10-23T10:51:27.857Z,49
2022-10-23T10:52:27.858Z,55
2022-10-23T10:53:27.858Z,50
2022-10-23T10:54:27.846Z,49
2022-10-23T10:55:27.910Z,52
2022-10-23T10:56:27.861Z,51
2022-10-23T10:57:27.848Z,52
2022-10-23T10:58:27.848Z,53
2022-10-23T10:59:27.862Z,58
2022-10-23T11:00:27.863Z,52
2022-10-23T11:01:27.850Z,61
2022-10-23T11:02:27.863Z,45
2022-10-23T11:03:27.864Z,38
2022-10-23T11:04:27.864Z,37
2022-10-23T11:05:27.852Z,37
2022-10-23T11:06:27.866Z,37
2022-10-23T11:07:27.918Z,34
2022-10-23T11:08:27.867Z,45
2022-10-23T11:09:27.854Z,42
2022-10-23T11:10:27.868Z,49
2022-10-23T11:11:27.869Z,52
2022-10-23T11:12:27.869Z,51
2022-10-23T11:13:27.856Z,48
2022-10-23T11:14:27.870Z,44
2022-10-23T11:15:27.871Z,49
2022-10-23T11:16:27.858Z,49
2022-10-23T11:17:27.859Z,57
2022-10-23T11:18:27.872Z,43
2022-10-23T11:19:27.874Z,43
2022-10-23T11:20:27.860Z,51
2022-10-23T11:21:27.874Z,52
2022-10-23T11:22:27.875Z,52
2022-10-23T11:23:27.875Z,51
2022-10-23T11:24:27.863Z,48
2022-10-23T11:25:27.876Z,52
2022-10-23T11:26:27.878Z,53
2022-10-23T11:27:27.877Z,58
2022-10-23T11:28:27.865Z,50
2022-10-23T11:29:27.879Z,50
2022-10-23T11:30:27.880Z,58
2022-10-23T11:31:27.892Z,58
2022-10-23T11:32:27.867Z,56
2022-10-23T11:33:27.881Z,56
2022-10-23T11:34:27.882Z,62
2022-10-23T11:35:27.869Z,49
2022-10-23T11:36:27.870Z,50
2022-10-23T11:37:27.883Z,49
2022-10-23T11:38:27.884Z,45
2022-10-23T11:39:27.871Z,48
2022-10-23T11:40:27.885Z,47
2022-10-23T11:41:27.885Z,53
2022-10-23T11:42:27.886Z,52
2022-10-23T11:43:27.873Z,55
2022-10-23T11:44:27.887Z,55
2022-10-23T11:45:27.889Z,52
2022-10-23T11:46:27.888Z,56
2022-10-23T11:47:27.876Z,48
2022-10-23T11:48:27.889Z,47
2022-10-23T11:49:27.891Z,54
2022-10-23T11:50:27.877Z,57
2022-10-23T11:51:27.878Z,57
2022-10-23T11:52:27.891Z,51
2022-10-23T11:53:27.893Z,48
2022-10-23T11:54:27.879Z,49
2022-10-23T11:55:27.958Z,42
2022-10-23T11:56:27.894Z,53
2022-10-23T11:57:27.894Z,52
2022-10-23T11:58:27.882Z,57
2022-10-23T11:59:27.896Z,59
2022-10-23T12:00:27.896Z,65
2022-10-23T12:01:27.896Z,62
2022-10-23T12:02:27.884Z,59
2022-10-23T12:03:27.898Z,62
2022-10-23T12:04:27.899Z,55
2022-10-23T12:05:27.899Z,47
2022-10-23T12:06:27.886Z,48
2022-10-23T12:07:27.925Z,53
2022-10-23T12:08:27.901Z,56
2022-10-23T12:09:27.888Z,59
2022-10-23T12:10:27.888Z,57
2022-10-23T12:11:27.902Z,57
2022-10-23T12:12:27.903Z,55
2022-10-23T12:13:27.890Z,61
2022-10-23T12:14:27.904Z,62
2022-10-23T12:15:27.904Z,69
2022-10-23T12:16:27.905Z,66
2022-10-23T12:17:27.892Z,64
2022-10-23T12:18:27.906Z,73
2022-10-23T12:19:27.959Z,73
2022-10-23T12:20:27.907Z,71
2022-10-23T12:21:27.894Z,73
2022-10-23T12:22:27.908Z,86
2022-10-23T12:23:27.909Z,84
2022-10-23T12:24:27.909Z,78
2022-10-23T12:25:27.896Z,77
2022-10-23T12:26:27.910Z,78
2022-10-23T12:27:27.911Z,70
2022-10-23T12:28:27.898Z,79
2022-10-23T12:29:27.898Z,96
2022-10-23T12:30:27.912Z,99
2022-10-23T12:31:27.938Z,97
2022-10-23T12:32:27.900Z,104
2022-10-23T12:33:27.914Z,95
2022-10-23T12:34:27.914Z,89
2022-10-23T12:35:27.915Z,78
2022-10-23T12:36:27.902Z,78
2022-10-23T12:37:27.916Z,73
2022-10-23T12:38:27.917Z,74
2022-10-23T12:39:27.916Z,72
2022-10-23T12:40:27.904Z,68
2022-10-23T12:41:27.918Z,65
2022-10-23T12:42:27.919Z,78
2022-10-23T12:43:27.905Z,70
2022-10-23T12:44:27.906Z,67
2022-10-23T12:45:27.919Z,68
2022-10-23T12:46:27.921Z,63
2022-10-23T12:47:27.907Z,58
2022-10-23T12:48:27.908Z,42
2022-10-23T12:49:27.921Z,44
2022-10-23T12:50:27.986Z,45
2022-10-23T12:51:27.909Z,47
2022-10-23T12:52:27.923Z,44
2022-10-23T12:53:27.923Z,44
2022-10-23T12:54:27.924Z,43
2022-10-23T12:55:27.911Z,45
2022-10-23T12:56:27.925Z,51
2022-10-23T12:57:27.926Z,46
2022-10-23T12:58:27.926Z,45
2022-10-23T12:59:27.913Z,41
2022-10-23T13:00:27.927Z,48
2022-10-23T13:01:27.928Z,47
2022-10-23T13:02:27.928Z,53
2022-10-23T13:03:27.915Z,51
2022-10-23T13:04:27.929Z,51
2022-10-23T13:05:27.930Z,45
2022-10-23T13:06:27.916Z,43
2022-10-23T13:07:27.917Z,42
2022-10-23T13:08:27.930Z,46
2022-10-23T13:09:27.972Z,40
2022-10-23T13:10:27.918Z,46
2022-10-23T13:11:27.932Z,47
2022-10-23T13:12:27.933Z,35
2022-10-23T13:13:27.933Z,28
2022-10-23T13:14:27.920Z,25
2022-10-23T13:15:27.934Z,38
2022-10-23T13:16:27.935Z,37
2022-10-23T13:17:27.935Z,30
2022-10-23T13:18:27.922Z,29
2022-10-23T13:19:27.936Z,34
2022-10-23T13:20:27.937Z,41
2022-10-23T13:21:27.924Z,41
2022-10-23T13:22:27.924Z,37
2022-10-23T13:23:27.938Z,34
2022-10-23T13:24:27.939Z,32
2022-10-23T13:25:27.926Z,38
2022-10-23T13:26:27.926Z,53
2022-10-23T13:27:27.940Z,37
2022-10-23T13:28:27.940Z,45
2022-10-23T13:29:27.928Z,38
2022-10-23T13:30:27.941Z,42
2022-10-23T13:31:27.942Z,48
2022-10-23T13:32:27.942Z,51
2022-10-23T13:33:27.930Z,50
2022-10-23T13:34:27.944Z,52
2022-10-23T13:35:27.945Z,53
2022-10-23T13:36:27.944Z,55
2022-10-23T13:37:27.932Z,54
2022-10-23T13:38:27.946Z,53
2022-10-23T13:39:27.947Z,47
2022-10-23T13:40:27.933Z,44
2022-10-23T13:41:27.934Z,51
2022-10-23T13:42:27.948Z,52
2022-10-23T13:43:27.949Z,54
2022-10-23T13:44:27.935Z,54
2022-10-23T13:45:27.975Z,64
2022-10-23T13:46:27.950Z,61
2022-10-23T13:47:27.950Z,55
2022-10-23T13:48:27.938Z,53
2022-10-23T13:49:27.951Z,50
2022-10-23T13:50:27.952Z,47
2022-10-23T13:51:27.952Z,43
2022-10-23T13:52:27.940Z,47
2022-10-23T13:53:27.953Z,46
2022-10-23T13:54:27.955Z,47
2022-10-23T13:55:27.954Z,52
2022-10-23T13:56:27.942Z,46
2022-10-23T13:57:27.956Z,41
2022-10-23T13:58:27.957Z,46
2022-10-23T13:59:27.943Z,50
2022-10-23T14:00:27.944Z,50
2022-10-23T14:01:27.958Z,54
2022-10-23T14:02:27.959Z,51
2022-10-23T14:03:27.946Z,48
2022-10-23T14:04:27.959Z,45
2022-10-23T14:05:27.960Z,44
2022-10-23T14:06:27.960Z,52
2022-10-23T14:07:27.948Z,52
2022-10-23T14:08:27.961Z,55
2022-10-23T14:09:28.007Z,55
2022-10-23T14:10:27.962Z,57
2022-10-23T14:11:27.950Z,54
2022-10-23T14:12:27.963Z,56
2022-10-23T14:13:27.964Z,56
2022-10-23T14:14:27.964Z,57
2022-10-23T14:15:27.952Z,66
2022-10-23T14:16:27.965Z,67
2022-10-23T14:17:27.966Z,62